sensor_id;sensor_type;location;lat;lon;timestamp;P1;durP1;ratioP1;P2;durP2;ratioP2
19358;SDS011;9815;52.334;20.890;2022-10-22T00:00:58;45.73;;;22.67;;
19358;SDS011;9815;52.334;20.890;2022-10-22T00:03:26;46.53;;;22.57;;
19358;SDS011;9815;52.334;20.890;2022-10-22T00:05:54;44.37;;;21.53;;
19358;SDS011;9815;52.334;20.890;2022-10-22T00:08:22;40.97;;;20.93;;
19358;SDS011;9815;52.334;20.890;2022-10-22T00:10:50;39.47;;;21.27;;
19358;SDS011;9815;52.334;20.890;2022-10-22T00:13:20;43.17;;;21.33;;
19358;SDS011;9815;52.334;20.890;2022-10-22T00:15:48;43.40;;;22.27;;
19358;SDS011;9815;52.334;20.890;2022-10-22T00:18:15;45.90;;;21.57;;
19358;SDS011;9815;52.334;20.890;2022-10-22T00:20:43;45.53;;;23.17;;
19358;SDS011;9815;52.334;20.890;2022-10-22T00:23:12;46.17;;;23.47;;
19358;SDS011;9815;52.334;20.890;2022-10-22T00:25:40;48.23;;;23.13;;
19358;SDS011;9815;52.334;20.890;2022-10-22T00:28:08;46.97;;;22.60;;
19358;SDS011;9815;52.334;20.890;2022-10-22T00:30:38;44.50;;;22.37;;
19358;SDS011;9815;52.334;20.890;2022-10-22T00:33:06;42.50;;;21.77;;
19358;SDS011;9815;52.334;20.890;2022-10-22T00:35:33;42.07;;;20.60;;
19358;SDS011;9815;52.334;20.890;2022-10-22T00:38:02;41.97;;;21.73;;
19358;SDS011;9815;52.334;20.890;2022-10-22T00:40:30;37.40;;;20.53;;
19358;SDS011;9815;52.334;20.890;2022-10-22T00:42:58;42.27;;;21.43;;
19358;SDS011;9815;52.334;20.890;2022-10-22T00:45:26;39.67;;;20.60;;
19358;SDS011;9815;52.334;20.890;2022-10-22T00:47:57;42.53;;;21.13;;
19358;SDS011;9815;52.334;20.890;2022-10-22T00:50:29;43.47;;;20.77;;
19358;SDS011;9815;52.334;20.890;2022-10-22T00:53:02;38.80;;;20.00;;
19358;SDS011;9815;52.334;20.890;2022-10-22T00:55:31;40.50;;;20.67;;
19358;SDS011;9815;52.334;20.890;2022-10-22T00:57:59;40.33;;;20.20;;
19358;SDS011;9815;52.334;20.890;2022-10-22T01:00:28;37.20;;;20.33;;
19358;SDS011;9815;52.334;20.890;2022-10-22T01:02:58;38.37;;;20.13;;
19358;SDS011;9815;52.334;20.890;2022-10-22T01:05:27;38.07;;;19.63;;
19358;SDS011;9815;52.334;20.890;2022-10-22T01:07:57;37.27;;;19.80;;
19358;SDS011;9815;52.334;20.890;2022-10-22T01:10:37;36.03;;;19.30;;
19358;SDS011;9815;52.334;20.890;2022-10-22T01:13:21;35.93;;;18.77;;
19358;SDS011;9815;52.334;20.890;2022-10-22T01:15:59;37.50;;;19.17;;
19358;SDS011;9815;52.334;20.890;2022-10-22T01:18:37;37.83;;;18.90;;
19358;SDS011;9815;52.334;20.890;2022-10-22T01:21:15;36.90;;;19.97;;
19358;SDS011;9815;52.334;20.890;2022-10-22T01:24:08;42.43;;;18.70;;
19358;SDS011;9815;52.334;20.890;2022-10-22T01:26:59;37.27;;;18.03;;
19358;SDS011;9815;52.334;20.890;2022-10-22T01:29:43;40.03;;;19.03;;
19358;SDS011;9815;52.334;20.890;2022-10-22T01:32:15;36.03;;;18.33;;
19358;SDS011;9815;52.334;20.890;2022-10-22T01:34:46;34.53;;;18.30;;
19358;SDS011;9815;52.334;20.890;2022-10-22T01:37:17;35.37;;;18.57;;
19358;SDS011;9815;52.334;20.890;2022-10-22T01:39:48;37.63;;;19.53;;
19358;SDS011;9815;52.334;20.890;2022-10-22T01:42:16;38.13;;;18.70;;
19358;SDS011;9815;52.334;20.890;2022-10-22T01:44:46;34.13;;;18.43;;
19358;SDS011;9815;52.334;20.890;2022-10-22T01:47:16;31.67;;;18.17;;
19358;SDS011;9815;52.334;20.890;2022-10-22T01:49:57;38.90;;;18.67;;
19358;SDS011;9815;52.334;20.890;2022-10-22T01:52:45;36.50;;;18.83;;
19358;SDS011;9815;52.334;20.890;2022-10-22T01:55:26;37.67;;;19.00;;
19358;SDS011;9815;52.334;20.890;2022-10-22T01:58:01;34.63;;;18.17;;
19358;SDS011;9815;52.334;20.890;2022-10-22T02:00:39;31.50;;;17.90;;
19358;SDS011;9815;52.334;20.890;2022-10-22T02:03:14;30.33;;;17.97;;
19358;SDS011;9815;52.334;20.890;2022-10-22T02:05:50;40.10;;;18.43;;
19358;SDS011;9815;52.334;20.890;2022-10-22T02:08:21;35.50;;;18.27;;
19358;SDS011;9815;52.334;20.890;2022-10-22T02:10:53;35.03;;;18.47;;
19358;SDS011;9815;52.334;20.890;2022-10-22T02:13:23;33.07;;;17.70;;
19358;SDS011;9815;52.334;20.890;2022-10-22T02:15:55;38.53;;;19.10;;
19358;SDS011;9815;52.334;20.890;2022-10-22T02:18:25;37.07;;;19.07;;
19358;SDS011;9815;52.334;20.890;2022-10-22T02:20:56;39.87;;;20.70;;
19358;SDS011;9815;52.334;20.890;2022-10-22T02:23:25;38.30;;;20.73;;
19358;SDS011;9815;52.334;20.890;2022-10-22T02:25:54;39.77;;;20.53;;
19358;SDS011;9815;52.334;20.890;2022-10-22T02:28:30;38.67;;;20.10;;
19358;SDS011;9815;52.334;20.890;2022-10-22T02:31:04;38.17;;;19.80;;
19358;SDS011;9815;52.334;20.890;2022-10-22T02:33:37;39.83;;;20.57;;
19358;SDS011;9815;52.334;20.890;2022-10-22T02:36:10;40.87;;;22.13;;
19358;SDS011;9815;52.334;20.890;2022-10-22T02:38:39;40.37;;;20.20;;
19358;SDS011;9815;52.334;20.890;2022-10-22T02:41:08;39.50;;;21.40;;
19358;SDS011;9815;52.334;20.890;2022-10-22T02:43:40;38.40;;;20.53;;
19358;SDS011;9815;52.334;20.890;2022-10-22T02:46:10;40.83;;;20.37;;
19358;SDS011;9815;52.334;20.890;2022-10-22T02:48:39;44.00;;;21.90;;
19358;SDS011;9815;52.334;20.890;2022-10-22T02:51:07;38.77;;;20.87;;
19358;SDS011;9815;52.334;20.890;2022-10-22T02:53:36;41.00;;;20.63;;
19358;SDS011;9815;52.334;20.890;2022-10-22T02:56:04;42.77;;;20.83;;
19358;SDS011;9815;52.334;20.890;2022-10-22T02:58:33;42.03;;;20.83;;
19358;SDS011;9815;52.334;20.890;2022-10-22T03:01:01;47.57;;;22.17;;
19358;SDS011;9815;52.334;20.890;2022-10-22T03:03:31;38.50;;;20.80;;
19358;SDS011;9815;52.334;20.890;2022-10-22T03:05:59;41.20;;;19.67;;
19358;SDS011;9815;52.334;20.890;2022-10-22T03:08:27;41.27;;;21.33;;
19358;SDS011;9815;52.334;20.890;2022-10-22T03:10:56;37.97;;;20.80;;
19358;SDS011;9815;52.334;20.890;2022-10-22T03:13:24;39.90;;;20.97;;
19358;SDS011;9815;52.334;20.890;2022-10-22T03:15:52;39.47;;;20.47;;
19358;SDS011;9815;52.334;20.890;2022-10-22T03:18:20;44.27;;;21.10;;
19358;SDS011;9815;52.334;20.890;2022-10-22T03:20:52;43.53;;;21.40;;
19358;SDS011;9815;52.334;20.890;2022-10-22T03:23:28;42.50;;;21.50;;
19358;SDS011;9815;52.334;20.890;2022-10-22T03:25:56;44.63;;;22.63;;
19358;SDS011;9815;52.334;20.890;2022-10-22T03:28:25;43.17;;;22.07;;
19358;SDS011;9815;52.334;20.890;2022-10-22T03:30:54;42.17;;;21.53;;
19358;SDS011;9815;52.334;20.890;2022-10-22T03:33:22;41.37;;;21.70;;
19358;SDS011;9815;52.334;20.890;2022-10-22T03:35:51;43.33;;;21.23;;
19358;SDS011;9815;52.334;20.890;2022-10-22T03:38:19;39.43;;;21.33;;
19358;SDS011;9815;52.334;20.890;2022-10-22T03:40:47;44.00;;;21.43;;
19358;SDS011;9815;52.334;20.890;2022-10-22T03:43:15;42.70;;;22.20;;
19358;SDS011;9815;52.334;20.890;2022-10-22T03:45:44;38.80;;;20.73;;
19358;SDS011;9815;52.334;20.890;2022-10-22T03:48:12;40.03;;;21.50;;
19358;SDS011;9815;52.334;20.890;2022-10-22T03:50:40;39.50;;;21.33;;
19358;SDS011;9815;52.334;20.890;2022-10-22T03:53:10;40.57;;;20.23;;
19358;SDS011;9815;52.334;20.890;2022-10-22T03:55:39;40.03;;;20.43;;
19358;SDS011;9815;52.334;20.890;2022-10-22T03:58:08;41.60;;;21.67;;
19358;SDS011;9815;52.334;20.890;2022-10-22T04:00:36;39.83;;;20.33;;
19358;SDS011;9815;52.334;20.890;2022-10-22T04:03:04;39.83;;;20.90;;
19358;SDS011;9815;52.334;20.890;2022-10-22T04:05:32;36.83;;;20.57;;
19358;SDS011;9815;52.334;20.890;2022-10-22T04:08:00;39.40;;;20.43;;
19358;SDS011;9815;52.334;20.890;2022-10-22T04:10:30;40.80;;;21.23;;
19358;SDS011;9815;52.334;20.890;2022-10-22T04:12:58;38.30;;;19.47;;
19358;SDS011;9815;52.334;20.890;2022-10-22T04:15:26;39.87;;;19.43;;
19358;SDS011;9815;52.334;20.890;2022-10-22T04:17:54;39.57;;;20.17;;
19358;SDS011;9815;52.334;20.890;2022-10-22T04:20:22;39.07;;;20.40;;
19358;SDS011;9815;52.334;20.890;2022-10-22T04:22:50;37.40;;;19.53;;
19358;SDS011;9815;52.334;20.890;2022-10-22T04:25:18;42.93;;;20.93;;
19358;SDS011;9815;52.334;20.890;2022-10-22T04:27:47;44.40;;;20.27;;
19358;SDS011;9815;52.334;20.890;2022-10-22T04:30:15;49.47;;;21.53;;
19358;SDS011;9815;52.334;20.890;2022-10-22T04:32:43;40.63;;;20.97;;
19358;SDS011;9815;52.334;20.890;2022-10-22T04:35:11;46.70;;;21.37;;
19358;SDS011;9815;52.334;20.890;2022-10-22T04:37:39;41.27;;;19.77;;
19358;SDS011;9815;52.334;20.890;2022-10-22T04:40:08;45.07;;;21.27;;
19358;SDS011;9815;52.334;20.890;2022-10-22T04:42:37;39.83;;;19.90;;
19358;SDS011;9815;52.334;20.890;2022-10-22T04:45:07;41.70;;;21.10;;
19358;SDS011;9815;52.334;20.890;2022-10-22T04:47:36;43.70;;;20.70;;
19358;SDS011;9815;52.334;20.890;2022-10-22T04:50:05;40.70;;;20.07;;
19358;SDS011;9815;52.334;20.890;2022-10-22T04:52:33;44.97;;;20.37;;
19358;SDS011;9815;52.334;20.890;2022-10-22T04:55:01;41.90;;;19.90;;
19358;SDS011;9815;52.334;20.890;2022-10-22T04:57:29;40.63;;;19.83;;
19358;SDS011;9815;52.334;20.890;2022-10-22T04:59:58;40.97;;;20.13;;
19358;SDS011;9815;52.334;20.890;2022-10-22T05:02:27;43.57;;;20.57;;
19358;SDS011;9815;52.334;20.890;2022-10-22T05:04:55;43.33;;;20.73;;
19358;SDS011;9815;52.334;20.890;2022-10-22T05:07:23;43.67;;;19.77;;
19358;SDS011;9815;52.334;20.890;2022-10-22T05:09:51;43.80;;;20.57;;
19358;SDS011;9815;52.334;20.890;2022-10-22T05:12:20;43.20;;;19.43;;
19358;SDS011;9815;52.334;20.890;2022-10-22T05:14:47;42.27;;;20.20;;
19358;SDS011;9815;52.334;20.890;2022-10-22T05:17:15;42.10;;;20.93;;
19358;SDS011;9815;52.334;20.890;2022-10-22T05:19:45;39.23;;;21.37;;
19358;SDS011;9815;52.334;20.890;2022-10-22T05:22:13;44.70;;;21.70;;
19358;SDS011;9815;52.334;20.890;2022-10-22T05:24:41;41.93;;;20.87;;
19358;SDS011;9815;52.334;20.890;2022-10-22T05:27:09;43.83;;;21.13;;
19358;SDS011;9815;52.334;20.890;2022-10-22T05:29:37;49.67;;;21.63;;
19358;SDS011;9815;52.334;20.890;2022-10-22T05:32:05;46.33;;;21.93;;
19358;SDS011;9815;52.334;20.890;2022-10-22T05:34:32;44.47;;;21.37;;
19358;SDS011;9815;52.334;20.890;2022-10-22T05:37:02;48.73;;;21.33;;
19358;SDS011;9815;52.334;20.890;2022-10-22T05:39:30;48.27;;;21.57;;
19358;SDS011;9815;52.334;20.890;2022-10-22T05:42:02;55.20;;;24.07;;
19358;SDS011;9815;52.334;20.890;2022-10-22T05:44:30;59.60;;;24.93;;
19358;SDS011;9815;52.334;20.890;2022-10-22T05:46:58;58.50;;;23.77;;
19358;SDS011;9815;52.334;20.890;2022-10-22T05:49:26;51.57;;;22.80;;
19358;SDS011;9815;52.334;20.890;2022-10-22T05:51:54;46.77;;;23.27;;
19358;SDS011;9815;52.334;20.890;2022-10-22T05:54:23;49.17;;;22.87;;
19358;SDS011;9815;52.334;20.890;2022-10-22T05:56:51;46.10;;;21.40;;
19358;SDS011;9815;52.334;20.890;2022-10-22T05:59:20;50.80;;;22.37;;
19358;SDS011;9815;52.334;20.890;2022-10-22T06:01:48;52.53;;;22.53;;
19358;SDS011;9815;52.334;20.890;2022-10-22T06:04:17;47.23;;;22.73;;
19358;SDS011;9815;52.334;20.890;2022-10-22T06:06:45;48.60;;;22.77;;
19358;SDS011;9815;52.334;20.890;2022-10-22T06:09:16;56.93;;;25.37;;
19358;SDS011;9815;52.334;20.890;2022-10-22T06:11:48;52.47;;;24.73;;
19358;SDS011;9815;52.334;20.890;2022-10-22T06:14:16;54.50;;;24.57;;
19358;SDS011;9815;52.334;20.890;2022-10-22T06:16:45;48.83;;;23.80;;
19358;SDS011;9815;52.334;20.890;2022-10-22T06:19:15;49.77;;;23.80;;
19358;SDS011;9815;52.334;20.890;2022-10-22T06:21:45;46.27;;;23.13;;
19358;SDS011;9815;52.334;20.890;2022-10-22T06:24:13;49.63;;;24.67;;
19358;SDS011;9815;52.334;20.890;2022-10-22T06:26:42;49.17;;;25.10;;
19358;SDS011;9815;52.334;20.890;2022-10-22T06:29:11;51.07;;;25.00;;
19358;SDS011;9815;52.334;20.890;2022-10-22T06:31:39;48.03;;;23.80;;
19358;SDS011;9815;52.334;20.890;2022-10-22T06:34:09;47.57;;;23.43;;
19358;SDS011;9815;52.334;20.890;2022-10-22T06:36:38;50.83;;;25.50;;
19358;SDS011;9815;52.334;20.890;2022-10-22T06:39:09;46.53;;;23.90;;
19358;SDS011;9815;52.334;20.890;2022-10-22T06:41:38;47.07;;;22.90;;
19358;SDS011;9815;52.334;20.890;2022-10-22T06:44:06;47.80;;;23.40;;
19358;SDS011;9815;52.334;20.890;2022-10-22T06:46:40;47.30;;;23.37;;
19358;SDS011;9815;52.334;20.890;2022-10-22T06:49:10;44.27;;;22.93;;
19358;SDS011;9815;52.334;20.890;2022-10-22T06:51:40;45.10;;;23.13;;
19358;SDS011;9815;52.334;20.890;2022-10-22T06:54:08;48.20;;;24.30;;
19358;SDS011;9815;52.334;20.890;2022-10-22T06:56:36;46.07;;;23.47;;
19358;SDS011;9815;52.334;20.890;2022-10-22T06:59:04;47.97;;;23.70;;
19358;SDS011;9815;52.334;20.890;2022-10-22T07:01:33;49.77;;;23.40;;
19358;SDS011;9815;52.334;20.890;2022-10-22T07:04:03;49.40;;;22.90;;
19358;SDS011;9815;52.334;20.890;2022-10-22T07:06:32;44.33;;;23.83;;
19358;SDS011;9815;52.334;20.890;2022-10-22T07:09:00;53.27;;;25.37;;
19358;SDS011;9815;52.334;20.890;2022-10-22T07:11:29;47.93;;;26.33;;
19358;SDS011;9815;52.334;20.890;2022-10-22T07:14:03;50.00;;;23.77;;
19358;SDS011;9815;52.334;20.890;2022-10-22T07:16:32;43.07;;;23.27;;
19358;SDS011;9815;52.334;20.890;2022-10-22T07:19:00;45.20;;;22.57;;
19358;SDS011;9815;52.334;20.890;2022-10-22T07:21:30;45.33;;;22.90;;
19358;SDS011;9815;52.334;20.890;2022-10-22T07:23:58;42.80;;;22.13;;
19358;SDS011;9815;52.334;20.890;2022-10-22T07:26:27;47.13;;;22.60;;
19358;SDS011;9815;52.334;20.890;2022-10-22T07:28:58;42.43;;;21.93;;
19358;SDS011;9815;52.334;20.890;2022-10-22T07:31:26;40.87;;;21.43;;
19358;SDS011;9815;52.334;20.890;2022-10-22T07:33:54;48.67;;;22.57;;
19358;SDS011;9815;52.334;20.890;2022-10-22T07:36:22;43.43;;;22.13;;
19358;SDS011;9815;52.334;20.890;2022-10-22T07:38:54;43.53;;;22.23;;
19358;SDS011;9815;52.334;20.890;2022-10-22T07:41:23;41.70;;;20.80;;
19358;SDS011;9815;52.334;20.890;2022-10-22T07:43:51;48.63;;;23.07;;
19358;SDS011;9815;52.334;20.890;2022-10-22T07:46:19;49.63;;;23.27;;
19358;SDS011;9815;52.334;20.890;2022-10-22T07:48:47;44.70;;;22.40;;
19358;SDS011;9815;52.334;20.890;2022-10-22T07:51:16;41.40;;;22.73;;
19358;SDS011;9815;52.334;20.890;2022-10-22T07:53:44;43.37;;;22.47;;
19358;SDS011;9815;52.334;20.890;2022-10-22T07:56:14;47.17;;;23.03;;
19358;SDS011;9815;52.334;20.890;2022-10-22T07:58:42;43.83;;;23.37;;
19358;SDS011;9815;52.334;20.890;2022-10-22T08:01:10;47.47;;;23.87;;
19358;SDS011;9815;52.334;20.890;2022-10-22T08:03:39;50.07;;;23.03;;
19358;SDS011;9815;52.334;20.890;2022-10-22T08:06:07;47.27;;;22.87;;
19358;SDS011;9815;52.334;20.890;2022-10-22T08:08:36;47.90;;;23.47;;
19358;SDS011;9815;52.334;20.890;2022-10-22T08:11:05;45.53;;;24.37;;
19358;SDS011;9815;52.334;20.890;2022-10-22T08:13:34;48.17;;;23.20;;
19358;SDS011;9815;52.334;20.890;2022-10-22T08:16:08;46.43;;;22.17;;
19358;SDS011;9815;52.334;20.890;2022-10-22T08:18:36;41.57;;;20.93;;
19358;SDS011;9815;52.334;20.890;2022-10-22T08:21:04;47.10;;;22.83;;
19358;SDS011;9815;52.334;20.890;2022-10-22T08:23:33;50.47;;;22.93;;
19358;SDS011;9815;52.334;20.890;2022-10-22T08:26:01;49.47;;;21.93;;
19358;SDS011;9815;52.334;20.890;2022-10-22T08:28:29;50.43;;;22.93;;
19358;SDS011;9815;52.334;20.890;2022-10-22T08:31:02;47.63;;;23.40;;
19358;SDS011;9815;52.334;20.890;2022-10-22T08:33:30;43.00;;;22.70;;
19358;SDS011;9815;52.334;20.890;2022-10-22T08:35:58;51.63;;;24.07;;
19358;SDS011;9815;52.334;20.890;2022-10-22T08:38:26;50.43;;;22.47;;
19358;SDS011;9815;52.334;20.890;2022-10-22T08:40:59;44.60;;;22.93;;
19358;SDS011;9815;52.334;20.890;2022-10-22T08:43:46;46.37;;;22.37;;
19358;SDS011;9815;52.334;20.890;2022-10-22T08:46:50;44.93;;;22.20;;
19358;SDS011;9815;52.334;20.890;2022-10-22T08:49:30;46.60;;;22.93;;
19358;SDS011;9815;52.334;20.890;2022-10-22T08:52:07;44.50;;;22.60;;
19358;SDS011;9815;52.334;20.890;2022-10-22T08:54:41;47.10;;;23.27;;
19358;SDS011;9815;52.334;20.890;2022-10-22T08:57:18;48.87;;;23.27;;
19358;SDS011;9815;52.334;20.890;2022-10-22T08:59:55;50.40;;;23.93;;
19358;SDS011;9815;52.334;20.890;2022-10-22T09:02:32;49.10;;;23.20;;
19358;SDS011;9815;52.334;20.890;2022-10-22T09:05:15;49.83;;;23.53;;
19358;SDS011;9815;52.334;20.890;2022-10-22T09:07:50;53.53;;;25.07;;
19358;SDS011;9815;52.334;20.890;2022-10-22T09:10:18;55.17;;;26.03;;
19358;SDS011;9815;52.334;20.890;2022-10-22T09:12:50;51.77;;;24.57;;
19358;SDS011;9815;52.334;20.890;2022-10-22T09:15:18;52.93;;;24.40;;
19358;SDS011;9815;52.334;20.890;2022-10-22T09:17:54;50.80;;;24.43;;
19358;SDS011;9815;52.334;20.890;2022-10-22T09:20:43;53.03;;;23.97;;
19358;SDS011;9815;52.334;20.890;2022-10-22T09:23:19;47.17;;;23.20;;
19358;SDS011;9815;52.334;20.890;2022-10-22T09:25:54;47.40;;;22.97;;
19358;SDS011;9815;52.334;20.890;2022-10-22T09:28:24;50.77;;;22.50;;
19358;SDS011;9815;52.334;20.890;2022-10-22T09:30:52;54.97;;;24.63;;
19358;SDS011;9815;52.334;20.890;2022-10-22T09:33:23;52.73;;;24.80;;
19358;SDS011;9815;52.334;20.890;2022-10-22T09:35:52;63.10;;;26.47;;
19358;SDS011;9815;52.334;20.890;2022-10-22T09:38:23;64.00;;;30.57;;
19358;SDS011;9815;52.334;20.890;2022-10-22T09:40:53;61.13;;;27.87;;
19358;SDS011;9815;52.334;20.890;2022-10-22T09:43:22;58.37;;;27.77;;
19358;SDS011;9815;52.334;20.890;2022-10-22T09:45:54;54.60;;;25.53;;
19358;SDS011;9815;52.334;20.890;2022-10-22T09:48:28;64.50;;;27.33;;
19358;SDS011;9815;52.334;20.890;2022-10-22T09:51:02;64.87;;;29.10;;
19358;SDS011;9815;52.334;20.890;2022-10-22T09:53:37;60.40;;;28.13;;
19358;SDS011;9815;52.334;20.890;2022-10-22T09:56:09;65.70;;;27.83;;
19358;SDS011;9815;52.334;20.890;2022-10-22T09:58:48;67.63;;;27.83;;
19358;SDS011;9815;52.334;20.890;2022-10-22T10:01:18;59.37;;;25.47;;
19358;SDS011;9815;52.334;20.890;2022-10-22T10:03:50;62.70;;;28.70;;
19358;SDS011;9815;52.334;20.890;2022-10-22T10:06:19;65.90;;;29.77;;
19358;SDS011;9815;52.334;20.890;2022-10-22T10:08:48;69.03;;;27.40;;
19358;SDS011;9815;52.334;20.890;2022-10-22T10:11:18;66.43;;;27.80;;
19358;SDS011;9815;52.334;20.890;2022-10-22T10:13:58;62.83;;;28.33;;
19358;SDS011;9815;52.334;20.890;2022-10-22T10:16:40;62.50;;;26.23;;
19358;SDS011;9815;52.334;20.890;2022-10-22T10:19:26;61.53;;;27.13;;
19358;SDS011;9815;52.334;20.890;2022-10-22T10:22:06;64.57;;;27.63;;
19358;SDS011;9815;52.334;20.890;2022-10-22T10:24:47;68.87;;;26.83;;
19358;SDS011;9815;52.334;20.890;2022-10-22T10:27:28;66.10;;;27.70;;
19358;SDS011;9815;52.334;20.890;2022-10-22T10:30:04;64.33;;;27.73;;
19358;SDS011;9815;52.334;20.890;2022-10-22T10:32:47;71.63;;;28.13;;
19358;SDS011;9815;52.334;20.890;2022-10-22T10:35:41;66.10;;;27.27;;
19358;SDS011;9815;52.334;20.890;2022-10-22T10:38:18;70.67;;;26.97;;
19358;SDS011;9815;52.334;20.890;2022-10-22T10:40:59;66.10;;;26.87;;
19358;SDS011;9815;52.334;20.890;2022-10-22T10:43:39;66.03;;;27.47;;
19358;SDS011;9815;52.334;20.890;2022-10-22T10:46:15;61.37;;;28.67;;
19358;SDS011;9815;52.334;20.890;2022-10-22T10:48:49;71.60;;;28.40;;
19358;SDS011;9815;52.334;20.890;2022-10-22T10:51:27;63.60;;;28.70;;
19358;SDS011;9815;52.334;20.890;2022-10-22T10:54:07;72.97;;;28.33;;
19358;SDS011;9815;52.334;20.890;2022-10-22T10:56:46;68.53;;;29.97;;
19358;SDS011;9815;52.334;20.890;2022-10-22T10:59:18;73.13;;;28.17;;
19358;SDS011;9815;52.334;20.890;2022-10-22T11:02:07;68.37;;;29.57;;
19358;SDS011;9815;52.334;20.890;2022-10-22T11:05:14;87.47;;;32.73;;
19358;SDS011;9815;52.334;20.890;2022-10-22T11:08:00;79.83;;;30.37;;
19358;SDS011;9815;52.334;20.890;2022-10-22T11:10:33;71.37;;;28.97;;
19358;SDS011;9815;52.334;20.890;2022-10-22T11:13:07;70.37;;;28.50;;
19358;SDS011;9815;52.334;20.890;2022-10-22T11:15:44;69.93;;;29.63;;
19358;SDS011;9815;52.334;20.890;2022-10-22T11:18:17;66.63;;;27.63;;
19358;SDS011;9815;52.334;20.890;2022-10-22T11:21:02;80.93;;;29.97;;
19358;SDS011;9815;52.334;20.890;2022-10-22T11:23:39;71.70;;;28.70;;
19358;SDS011;9815;52.334;20.890;2022-10-22T11:26:13;73.23;;;29.97;;
19358;SDS011;9815;52.334;20.890;2022-10-22T11:28:46;66.97;;;29.00;;
19358;SDS011;9815;52.334;20.890;2022-10-22T11:31:19;70.57;;;29.37;;
19358;SDS011;9815;52.334;20.890;2022-10-22T11:33:51;79.60;;;32.43;;
19358;SDS011;9815;52.334;20.890;2022-10-22T11:36:35;69.67;;;28.93;;
19358;SDS011;9815;52.334;20.890;2022-10-22T11:39:06;80.83;;;31.03;;
19358;SDS011;9815;52.334;20.890;2022-10-22T11:41:53;71.60;;;30.77;;
19358;SDS011;9815;52.334;20.890;2022-10-22T11:44:24;72.50;;;28.80;;
19358;SDS011;9815;52.334;20.890;2022-10-22T11:46:54;70.40;;;28.57;;
19358;SDS011;9815;52.334;20.890;2022-10-22T11:49:25;72.47;;;29.30;;
19358;SDS011;9815;52.334;20.890;2022-10-22T11:52:21;67.60;;;29.23;;
19358;SDS011;9815;52.334;20.890;2022-10-22T11:54:56;76.37;;;29.73;;
19358;SDS011;9815;52.334;20.890;2022-10-22T11:57:29;72.30;;;29.73;;
19358;SDS011;9815;52.334;20.890;2022-10-22T12:00:05;67.83;;;28.97;;
19358;SDS011;9815;52.334;20.890;2022-10-22T12:02:38;68.60;;;29.50;;
19358;SDS011;9815;52.334;20.890;2022-10-22T12:05:16;70.67;;;29.27;;
19358;SDS011;9815;52.334;20.890;2022-10-22T12:08:19;69.80;;;28.03;;
19358;SDS011;9815;52.334;20.890;2022-10-22T12:11:05;70.97;;;30.00;;
19358;SDS011;9815;52.334;20.890;2022-10-22T12:16:43;67.77;;;29.53;;
19358;SDS011;9815;52.334;20.890;2022-10-22T12:19:26;67.87;;;29.27;;
19358;SDS011;9815;52.334;20.890;2022-10-22T12:21:57;65.87;;;27.37;;
19358;SDS011;9815;52.334;20.890;2022-10-22T12:24:29;70.07;;;29.00;;
19358;SDS011;9815;52.334;20.890;2022-10-22T12:27:02;70.10;;;28.33;;
19358;SDS011;9815;52.334;20.890;2022-10-22T12:29:33;68.63;;;29.73;;
19358;SDS011;9815;52.334;20.890;2022-10-22T12:32:02;71.90;;;29.53;;
19358;SDS011;9815;52.334;20.890;2022-10-22T12:34:31;73.50;;;27.90;;
19358;SDS011;9815;52.334;20.890;2022-10-22T12:36:59;69.63;;;27.30;;
19358;SDS011;9815;52.334;20.890;2022-10-22T12:39:31;64.40;;;27.70;;
19358;SDS011;9815;52.334;20.890;2022-10-22T12:42:03;67.23;;;27.87;;
19358;SDS011;9815;52.334;20.890;2022-10-22T12:44:32;74.63;;;29.73;;
19358;SDS011;9815;52.334;20.890;2022-10-22T12:47:00;76.43;;;28.67;;
19358;SDS011;9815;52.334;20.890;2022-10-22T12:49:31;71.00;;;28.70;;
19358;SDS011;9815;52.334;20.890;2022-10-22T12:52:03;70.53;;;29.03;;
19358;SDS011;9815;52.334;20.890;2022-10-22T12:54:38;72.23;;;29.23;;
19358;SDS011;9815;52.334;20.890;2022-10-22T12:57:10;67.87;;;28.63;;
19358;SDS011;9815;52.334;20.890;2022-10-22T12:59:40;70.13;;;28.03;;
19358;SDS011;9815;52.334;20.890;2022-10-22T13:02:16;68.47;;;28.20;;
19358;SDS011;9815;52.334;20.890;2022-10-22T13:05:08;64.10;;;28.03;;
19358;SDS011;9815;52.334;20.890;2022-10-22T13:07:42;72.20;;;33.47;;
19358;SDS011;9815;52.334;20.890;2022-10-22T13:10:18;66.43;;;28.87;;
19358;SDS011;9815;52.334;20.890;2022-10-22T13:12:55;72.83;;;30.83;;
19358;SDS011;9815;52.334;20.890;2022-10-22T13:15:37;68.10;;;28.83;;
19358;SDS011;9815;52.334;20.890;2022-10-22T13:18:13;61.67;;;28.20;;
19358;SDS011;9815;52.334;20.890;2022-10-22T13:20:50;65.30;;;28.23;;
19358;SDS011;9815;52.334;20.890;2022-10-22T13:23:36;80.33;;;32.23;;
19358;SDS011;9815;52.334;20.890;2022-10-22T13:26:12;66.80;;;30.17;;
19358;SDS011;9815;52.334;20.890;2022-10-22T13:28:44;84.10;;;37.23;;
19358;SDS011;9815;52.334;20.890;2022-10-22T13:31:18;63.50;;;28.70;;
19358;SDS011;9815;52.334;20.890;2022-10-22T13:33:50;66.90;;;29.27;;
19358;SDS011;9815;52.334;20.890;2022-10-22T13:36:21;75.80;;;34.57;;
19358;SDS011;9815;52.334;20.890;2022-10-22T13:38:50;69.53;;;30.03;;
19358;SDS011;9815;52.334;20.890;2022-10-22T13:41:19;73.90;;;29.87;;
19358;SDS011;9815;52.334;20.890;2022-10-22T13:43:50;67.77;;;30.90;;
19358;SDS011;9815;52.334;20.890;2022-10-22T13:46:19;86.67;;;36.83;;
19358;SDS011;9815;52.334;20.890;2022-10-22T13:48:48;83.90;;;36.50;;
19358;SDS011;9815;52.334;20.890;2022-10-22T13:51:18;68.70;;;29.57;;
19358;SDS011;9815;52.334;20.890;2022-10-22T13:53:49;69.27;;;31.83;;
19358;SDS011;9815;52.334;20.890;2022-10-22T13:56:19;70.50;;;32.93;;
19358;SDS011;9815;52.334;20.890;2022-10-22T13:58:50;72.57;;;30.70;;
19358;SDS011;9815;52.334;20.890;2022-10-22T14:01:19;70.33;;;31.17;;
19358;SDS011;9815;52.334;20.890;2022-10-22T14:03:49;73.67;;;31.07;;
19358;SDS011;9815;52.334;20.890;2022-10-22T14:06:20;70.33;;;30.07;;
19358;SDS011;9815;52.334;20.890;2022-10-22T14:08:52;64.80;;;30.30;;
19358;SDS011;9815;52.334;20.890;2022-10-22T14:11:23;79.17;;;33.30;;
19358;SDS011;9815;52.334;20.890;2022-10-22T14:13:53;78.23;;;35.30;;
19358;SDS011;9815;52.334;20.890;2022-10-22T14:16:23;73.70;;;32.47;;
19358;SDS011;9815;52.334;20.890;2022-10-22T14:18:52;71.90;;;32.10;;
19358;SDS011;9815;52.334;20.890;2022-10-22T14:21:22;78.20;;;33.73;;
19358;SDS011;9815;52.334;20.890;2022-10-22T14:23:50;82.37;;;34.90;;
19358;SDS011;9815;52.334;20.890;2022-10-22T14:26:21;73.50;;;32.87;;
19358;SDS011;9815;52.334;20.890;2022-10-22T14:28:50;71.17;;;31.97;;
19358;SDS011;9815;52.334;20.890;2022-10-22T14:31:37;75.87;;;32.93;;
19358;SDS011;9815;52.334;20.890;2022-10-22T14:34:07;83.93;;;32.60;;
19358;SDS011;9815;52.334;20.890;2022-10-22T14:36:36;79.67;;;33.00;;
19358;SDS011;9815;52.334;20.890;2022-10-22T14:39:05;72.50;;;33.23;;
19358;SDS011;9815;52.334;20.890;2022-10-22T14:41:33;78.73;;;34.70;;
19358;SDS011;9815;52.334;20.890;2022-10-22T14:44:01;81.77;;;35.87;;
19358;SDS011;9815;52.334;20.890;2022-10-22T14:46:29;84.23;;;35.53;;
19358;SDS011;9815;52.334;20.890;2022-10-22T14:48:58;116.77;;;46.93;;
19358;SDS011;9815;52.334;20.890;2022-10-22T14:51:28;85.70;;;40.20;;